createdAt,value
2022-10-30T00:04:22.906Z,18.82
2022-10-30T00:11:24.460Z,18.65
2022-10-30T00:18:26.066Z,18.53
2022-10-30T00:25:27.627Z,18.61
2022-10-30T00:32:29.246Z,18.41
2022-10-30T00:39:30.933Z,18.24
2022-10-30T00:46:37.171Z,18.46
2022-10-30T00:53:38.988Z,18.12
2022-10-30T01:00:40.803Z,18.01
2022-10-30T01:07:42.374Z,17.89
2022-10-30T01:14:54.263Z,17.75
2022-10-30T01:22:13.163Z,17.62
2022-10-30T01:29:20.106Z,17.67
2022-10-30T01:36:42.806Z,17.66
2022-10-30T01:43:44.930Z,17.72
2022-10-30T01:51:03.229Z,17.81
2022-10-30T01:58:31.653Z,17.79
2022-10-30T02:05:47.529Z,17.75
2022-10-30T02:12:49.341Z,17.73
2022-10-30T02:19:50.977Z,17.71
2022-10-30T02:26:52.592Z,17.65
2022-10-30T02:33:54.189Z,17.62
2022-10-30T02:40:57.912Z,17.56
2022-10-30T02:48:00.970Z,17.49
2022-10-30T02:55:03.656Z,17.46
2022-10-30T03:02:05.443Z,17.41
2022-10-30T03:09:07.165Z,17.36
2022-10-30T03:16:10.948Z,17.36
2022-10-30T03:23:12.524Z,17.40
2022-10-30T03:30:14.115Z,17.31
2022-10-30T03:37:16.409Z,17.20
2022-10-30T03:44:19.285Z,17.22
2022-10-30T03:51:21.005Z,17.19
2022-10-30T03:58:22.782Z,17.13
2022-10-30T04:05:33.639Z,17.18
2022-10-30T04:12:37.738Z,17.19
2022-10-30T04:19:39.795Z,17.16
2022-10-30T04:26:42.406Z,17.22
2022-10-30T04:33:44.155Z,17.23
2022-10-30T04:40:45.889Z,17.23
2022-10-30T04:47:49.045Z,17.23
2022-10-30T04:54:51.421Z,17.13
2022-10-30T05:01:53.696Z,17.16
2022-10-30T05:08:56.134Z,17.17
2022-10-30T05:16:10.275Z,17.22
2022-10-30T05:23:11.925Z,17.13
2022-10-30T05:30:13.598Z,17.20
2022-10-30T05:37:15.915Z,17.07
2022-10-30T05:44:29.154Z,17.05
2022-10-30T05:51:39.761Z,17.11
2022-10-30T05:58:44.732Z,17.14
2022-10-30T06:05:46.638Z,16.82
2022-10-30T06:12:58.979Z,16.82
2022-10-30T06:20:15.241Z,16.92
2022-10-30T06:27:55.515Z,16.96
2022-10-30T06:34:57.378Z,16.67
2022-10-30T06:41:59.526Z,16.68
2022-10-30T06:49:19.026Z,16.75
2022-10-30T06:56:21.347Z,17.10
2022-10-30T07:03:39.530Z,17.09
2022-10-30T07:10:41.135Z,17.27
2022-10-30T07:18:17.969Z,17.34
2022-10-30T07:25:20.727Z,17.33
2022-10-30T07:32:30.279Z,17.37
2022-10-30T07:40:12.938Z,17.61
2022-10-30T07:47:33.375Z,18.03
2022-10-30T07:54:47.682Z,18.24
2022-10-30T08:02:27.520Z,18.23
2022-10-30T08:09:58.623Z,18.33
2022-10-30T08:17:00.508Z,18.75
2022-10-30T08:24:03.028Z,18.84
2022-10-30T08:31:07.767Z,18.82
2022-10-30T08:38:35.841Z,18.82
2022-10-30T08:45:57.772Z,18.85
2022-10-30T08:53:03.993Z,18.90
2022-10-30T09:00:06.833Z,19.15
2022-10-30T09:07:34.568Z,19.85
2022-10-30T09:14:54.611Z,20.71
2022-10-30T09:21:57.625Z,20.83
2022-10-30T09:28:59.394Z,20.92
2022-10-30T09:36:24.168Z,20.92
2022-10-30T09:43:48.231Z,20.82
2022-10-30T09:50:59.401Z,20.92
2022-10-30T09:58:18.478Z,21.40
2022-10-30T10:05:59.143Z,21.89
2022-10-30T10:13:38.375Z,22.09
2022-10-30T10:20:43.750Z,22.25
2022-10-30T10:28:23.874Z,22.39
2022-10-30T10:35:55.812Z,22.68
2022-10-30T10:43:07.148Z,23.07
2022-10-30T10:50:36.636Z,22.91
2022-10-30T10:57:38.423Z,22.79
2022-10-30T11:04:41.374Z,22.57
2022-10-30T11:11:46.657Z,22.57
2022-10-30T11:18:48.609Z,22.59
2022-10-30T11:25:50.175Z,22.59
2022-10-30T11:32:53.307Z,22.57
2022-10-30T11:40:13.224Z,22.47
2022-10-30T11:47:15.626Z,22.52
2022-10-30T11:54:19.394Z,22.51
2022-10-30T12:01:25.342Z,22.59
2022-10-30T12:08:26.977Z,22.64
2022-10-30T12:15:28.562Z,22.59
2022-10-30T12:22:31.448Z,22.70
2022-10-30T12:30:11.834Z,22.69
2022-10-30T12:37:21.207Z,22.75
2022-10-30T12:44:27.247Z,22.86
2022-10-30T12:51:47.772Z,22.88
2022-10-30T12:59:25.224Z,22.89
2022-10-30T13:06:28.667Z,22.89
2022-10-30T13:13:33.848Z,22.93
2022-10-30T13:20:35.458Z,22.86
2022-10-30T13:27:41.225Z,22.84
2022-10-30T13:34:45.892Z,22.80
2022-10-30T13:42:10.357Z,22.62
2022-10-30T13:49:22.519Z,22.62
2022-10-30T13:56:24.110Z,22.66
2022-10-30T14:03:45.713Z,22.65
2022-10-30T14:10:54.685Z,22.69
2022-10-30T14:18:11.345Z,22.64
2022-10-30T14:25:13.640Z,22.54
2022-10-30T14:32:15.132Z,22.55
2022-10-30T14:39:16.758Z,22.49
2022-10-30T14:46:30.022Z,22.45
2022-10-30T14:53:53.204Z,22.41
2022-10-30T15:01:21.007Z,22.36
2022-10-30T15:08:28.255Z,22.26
2022-10-30T15:15:29.821Z,22.12
2022-10-30T15:22:31.445Z,22.06
2022-10-30T15:29:35.513Z,21.95
2022-10-30T15:36:41.782Z,21.47
2022-10-30T15:43:43.780Z,21.31
2022-10-30T15:50:45.976Z,21.17
2022-10-30T15:58:13.298Z,21.04
2022-10-30T16:05:22.385Z,20.91
2022-10-30T16:12:25.859Z,20.77
2022-10-30T16:19:29.412Z,20.63
2022-10-30T16:26:37.642Z,20.48
2022-10-30T16:33:39.243Z,20.38
2022-10-30T16:40:40.831Z,20.28
2022-10-30T16:47:51.996Z,20.18
2022-10-30T16:55:00.318Z,20.06
2022-10-30T17:02:06.053Z,19.91
2022-10-30T17:09:30.159Z,19.82
2022-10-30T17:16:35.876Z,19.66
2022-10-30T17:23:37.448Z,19.53
2022-10-30T17:30:39.804Z,19.43
2022-10-30T17:37:41.358Z,19.32
2022-10-30T17:44:42.921Z,19.24
2022-10-30T17:51:44.469Z,19.15
2022-10-30T17:58:46.020Z,19.06
2022-10-30T18:05:47.582Z,18.96
2022-10-30T18:12:49.162Z,18.88
2022-10-30T18:19:51.166Z,18.78
2022-10-30T18:26:54.781Z,18.68
2022-10-30T18:33:56.355Z,18.60
2022-10-30T18:40:57.981Z,18.57
2022-10-30T18:48:02.774Z,18.67
2022-10-30T18:55:25.760Z,18.60
2022-10-30T19:02:27.578Z,18.29
2022-10-30T19:09:29.264Z,18.21
2022-10-30T19:16:30.904Z,18.15
2022-10-30T19:23:32.514Z,18.07
2022-10-30T19:30:34.150Z,18.01
2022-10-30T19:37:35.821Z,17.91
2022-10-30T19:44:37.440Z,17.81
2022-10-30T19:51:39.085Z,17.73
2022-10-30T19:58:40.681Z,17.64
2022-10-30T20:05:45.339Z,17.57
2022-10-30T20:12:46.989Z,17.48
2022-10-30T20:19:48.696Z,17.41
2022-10-30T20:26:50.267Z,17.35
2022-10-30T20:33:51.841Z,17.29
2022-10-30T20:40:53.454Z,17.25
2022-10-30T20:47:55.064Z,17.20
2022-10-30T20:54:56.667Z,17.13
2022-10-30T21:01:58.399Z,17.03
2022-10-30T21:09:00.123Z,17.01
2022-10-30T21:16:02.966Z,16.94
2022-10-30T21:23:05.418Z,16.87
2022-10-30T21:30:07.701Z,16.80
2022-10-30T21:37:09.282Z,16.74
2022-10-30T21:44:11.416Z,16.65
2022-10-30T21:51:23.351Z,16.63
2022-10-30T21:58:24.934Z,16.55
2022-10-30T22:05:26.539Z,16.49
2022-10-30T22:12:28.136Z,16.41
2022-10-30T22:19:29.702Z,16.36
2022-10-30T22:26:31.420Z,16.31
2022-10-30T22:33:33.211Z,16.25
2022-10-30T22:40:34.756Z,16.22
2022-10-30T22:47:36.328Z,16.16
2022-10-30T22:54:37.901Z,16.13
2022-10-30T23:01:39.810Z,16.07
2022-10-30T23:08:41.566Z,16.02
2022-10-30T23:15:43.120Z,15.95
2022-10-30T23:22:44.659Z,15.89
2022-10-30T23:29:47.454Z,15.85
2022-10-30T23:36:49.007Z,15.81
2022-10-30T23:43:54.176Z,15.79
2022-10-30T23:50:55.758Z,15.75
2022-10-30T23:57:57.656Z,15.72
